createdAt,value
2022-07-30T00:09:23.803Z,98525.02
2022-07-30T00:19:31.285Z,98514.05
2022-07-30T00:29:39.081Z,98507.64
2022-07-30T00:39:52.132Z,98503.04
2022-07-30T00:49:59.227Z,98487.85
2022-07-30T01:00:08.645Z,98479.30
2022-07-30T01:10:18.482Z,98474.02
2022-07-30T01:20:29.906Z,98471.40
2022-07-30T01:30:44.361Z,98458.49
2022-07-30T01:40:53.247Z,98444.36
2022-07-30T01:51:03.760Z,98424.09
2022-07-30T02:01:11.474Z,98414.31
2022-07-30T02:11:18.905Z,98407.59
2022-07-30T02:21:34.045Z,98405.94
2022-07-30T02:31:44.714Z,98409.05
2022-07-30T02:41:53.958Z,98390.88
2022-07-30T02:52:03.003Z,98397.11
2022-07-30T03:02:14.654Z,98391.38
2022-07-30T03:12:23.084Z,98393.31
2022-07-30T03:22:33.142Z,98404.24
2022-07-30T03:32:43.020Z,98396.41
2022-07-30T03:42:51.126Z,98397.77
2022-07-30T03:52:58.903Z,98401.39
2022-07-30T04:03:06.190Z,98395.02
2022-07-30T04:13:12.450Z,98401.14
2022-07-30T04:23:20.025Z,98391.79
2022-07-30T04:33:28.321Z,98384.98
2022-07-30T04:43:35.420Z,98387.63
2022-07-30T04:53:44.061Z,98398.10
2022-07-30T05:03:54.232Z,98390.37
2022-07-30T05:14:01.619Z,98382.67
2022-07-30T05:24:09.723Z,98394.45
2022-07-30T05:34:16.828Z,98406.40
2022-07-30T05:44:24.377Z,98402.02
2022-07-30T05:54:31.587Z,98387.77
2022-07-30T06:04:38.941Z,98371.30
2022-07-30T06:14:53.378Z,98374.48
2022-07-30T06:25:00.485Z,98370.68
2022-07-30T06:35:08.525Z,98371.58
2022-07-30T06:45:15.526Z,98373.26
2022-07-30T06:55:22.766Z,98367.16
2022-07-30T07:05:29.292Z,98354.13
2022-07-30T07:15:37.600Z,98342.69
2022-07-30T07:25:45.088Z,98341.56
2022-07-30T07:35:54.337Z,98339.30
2022-07-30T07:46:01.702Z,98332.64
2022-07-30T07:56:08.288Z,98326.16
2022-07-30T08:06:16.282Z,98318.39
2022-07-30T08:16:23.274Z,98313.77
2022-07-30T08:26:30.418Z,98313.11
2022-07-30T08:36:39.086Z,98308.63
2022-07-30T08:46:48.187Z,98304.71
2022-07-30T08:56:56.256Z,98291.05
2022-07-30T09:07:04.983Z,98285.20
2022-07-30T09:17:14.608Z,98277.27
2022-07-30T09:27:21.767Z,98264.58
2022-07-30T09:37:27.632Z,98262.25
2022-07-30T09:47:37.485Z,98256.19
2022-07-30T09:57:57.641Z,98250.00
2022-07-30T10:08:16.256Z,98239.05
2022-07-30T10:18:24.948Z,98240.50
2022-07-30T10:28:38.414Z,98238.59
2022-07-30T10:38:52.588Z,98224.14
2022-07-30T10:49:11.701Z,98232.91
2022-07-30T10:59:27.230Z,98232.36
2022-07-30T11:09:42.738Z,98230.23
2022-07-30T11:20:13.347Z,98220.83
2022-07-30T11:30:32.799Z,98213.85
2022-07-30T11:41:00.380Z,98206.98
2022-07-30T11:51:07.078Z,98202.71
2022-07-30T12:01:15.872Z,98204.84
2022-07-30T12:11:23.014Z,98198.38
2022-07-30T12:21:29.334Z,98190.85
2022-07-30T12:31:38.429Z,98192.11
2022-07-30T12:41:47.264Z,98210.23
2022-07-30T12:52:00.250Z,98199.15
2022-07-30T13:02:07.704Z,98196.73
2022-07-30T13:12:15.343Z,98213.79
2022-07-30T13:22:22.312Z,98204.71
2022-07-30T13:32:29.600Z,98190.24
2022-07-30T13:42:36.850Z,98198.13
2022-07-30T13:52:44.121Z,98197.35
2022-07-30T14:02:51.522Z,98202.17
2022-07-30T14:13:00.082Z,98200.03
2022-07-30T14:23:07.135Z,98194.81
2022-07-30T14:33:14.537Z,98191.52
2022-07-30T14:43:21.658Z,98172.50
2022-07-30T14:53:28.967Z,98156.10
2022-07-30T15:03:34.886Z,98155.91
2022-07-30T15:13:50.338Z,98155.13
2022-07-30T15:23:58.306Z,98153.46
2022-07-30T15:34:04.783Z,98149.40
2022-07-30T15:44:13.891Z,98141.59
2022-07-30T15:54:22.220Z,98141.51
2022-07-30T16:04:33.167Z,98135.35
2022-07-30T16:14:40.395Z,98124.83
2022-07-30T16:24:47.800Z,98123.61
2022-07-30T16:34:54.920Z,98119.57
2022-07-30T16:45:02.077Z,98121.27
2022-07-30T16:55:10.709Z,98126.12
2022-07-30T17:05:18.333Z,98133.15
2022-07-30T17:15:32.724Z,98132.29
2022-07-30T17:25:40.543Z,98137.50
2022-07-30T17:35:47.721Z,98128.84
2022-07-30T17:45:54.946Z,98125.50
2022-07-30T17:56:01.963Z,98120.79
2022-07-30T18:06:09.697Z,98119.12
2022-07-30T18:16:17.246Z,98121.02
2022-07-30T18:26:22.724Z,98114.27
2022-07-30T18:36:30.044Z,98121.92
2022-07-30T18:46:37.664Z,98123.45
2022-07-30T18:56:44.768Z,98121.11
2022-07-30T19:06:51.883Z,98118.70
2022-07-30T19:16:59.230Z,98120.48
2022-07-30T19:27:09.939Z,98114.45
2022-07-30T19:37:19.542Z,98107.77
2022-07-30T19:57:53.385Z,98093.13
2022-07-30T20:07:59.842Z,98082.65
2022-07-30T20:18:08.209Z,98073.20
2022-07-30T20:28:14.751Z,98064.10
2022-07-30T20:38:25.036Z,98059.59
2022-07-30T20:48:35.191Z,98057.20
2022-07-30T20:58:45.292Z,98055.34
2022-07-30T21:08:56.605Z,98053.67
2022-07-30T21:19:03.610Z,98052.29
2022-07-30T21:29:10.495Z,98049.52
2022-07-30T21:39:17.868Z,98042.15
2022-07-30T21:49:24.950Z,98035.79
2022-07-30T21:59:32.486Z,98030.80
2022-07-30T22:09:40.356Z,98029.53
2022-07-30T22:19:47.888Z,98022.70
2022-07-30T22:29:55.357Z,98019.55
2022-07-30T22:40:03.602Z,98009.44
2022-07-30T22:50:14.888Z,98000.61
2022-07-30T23:00:27.750Z,97990.68
2022-07-30T23:10:36.759Z,97982.77
2022-07-30T23:20:43.994Z,97987.05
2022-07-30T23:30:50.963Z,97977.16
2022-07-30T23:41:01.411Z,97978.83
2022-07-30T23:51:08.705Z,97970.29
